Terminal Aerodrome Forecast
Issued by NWS

Home | Current Version | Previous Version | Graphics & Text | Print | Product List | Glossary On
Versions: 1 2 3 4 5 6 7 8 9 10 11 12 13 14 15
000
FTUS43 KABR 141722
TAFMBG
TAF
KMBG 141722Z 1418/1518 36011KT 4SM -RA OVC045
     FM141900 34015G23KT 5SM -RA OVC050
     FM142000 34017G24KT P6SM VCSH BKN050
     FM142300 34014G21KT P6SM BKN060
     FM150000 34012KT P6SM SCT080=

USA.gov is the U.S. government's official web portal to all federal, state and local government web resources and services.